Time;durP1;ratioP1;P1;durP2;ratioP2;P2;SDS_P1;SDS_P2;PMS_P1;PMS_P2;Temp;Humidity;BMP_temperature;BMP_pressure;BME280_temperature;BME280_humidity;BME280_pressure;Samples;Min_cycle;Max_cycle;Signal;HPM_P1;HPM_P2
2022/01/01 00:00:09;;;;;;;10.87;8.03;;;;;;;12.58;86.06;101301.91;5034344;28;20587;-63
2022/01/01 00:02:35;;;;;;;9.17;7.87;;;;;;;12.57;85.96;101305.53;5035249;28;20809;-66
2022/01/01 00:05:03;;;;;;;12.20;8.63;;;;;;;12.56;85.58;101302.00;5037214;28;20232;-66
2022/01/01 00:07:29;;;;;;;14.23;9.20;;;;;;;12.58;85.61;101308.13;5032317;28;20210;-68
2022/01/01 00:09:56;;;;;;;13.70;9.17;;;;;;;12.56;85.87;101302.00;5039497;28;20270;-63
2022/01/01 00:12:22;;;;;;;12.20;9.73;;;;;;;12.57;85.85;101305.53;5036920;28;20231;-65
2022/01/01 00:14:50;;;;;;;13.07;9.37;;;;;;;12.55;85.80;101310.13;5034791;28;20214;-65
2022/01/01 00:17:17;;;;;;;12.67;9.30;;;;;;;12.55;85.97;101319.00;5018809;28;20221;-66
2022/01/01 00:19:43;;;;;;;12.67;9.27;;;;;;;12.56;85.69;101310.03;5029162;28;20229;-66
2022/01/01 00:22:10;;;;;;;14.63;10.67;;;;;;;12.54;86.03;101305.75;5028328;28;20370;-68
2022/01/01 00:24:36;;;;;;;17.50;10.20;;;;;;;12.54;85.80;101303.91;5034394;28;20598;-66
2022/01/01 00:27:03;;;;;;;14.40;10.03;;;;;;;12.54;85.74;101311.94;5033480;28;20206;-69
2022/01/01 00:29:30;;;;;;;14.33;9.97;;;;;;;12.55;86.13;101315.47;5027007;28;20222;-65
2022/01/01 00:31:58;;;;;;;15.57;10.20;;;;;;;12.55;85.73;101307.44;5037263;28;20232;-65
2022/01/01 00:34:24;;;;;;;14.20;10.77;;;;;;;12.55;85.62;101324.34;5037729;28;20603;-64
2022/01/01 00:36:51;;;;;;;14.73;10.67;;;;;;;12.52;85.76;101320.06;5034437;28;20220;-67
2022/01/01 00:39:17;;;;;;;13.57;10.83;;;;;;;12.52;85.80;101320.06;5037721;28;20212;-66
2022/01/01 00:41:44;;;;;;;15.83;11.07;;;;;;;12.52;85.80;101322.75;5040634;28;20206;-66
2022/01/01 00:44:10;;;;;;;18.67;12.03;;;;;;;12.51;85.94;101325.50;5039069;28;20232;-66
2022/01/01 00:46:37;;;;;;;17.20;11.03;;;;;;;12.51;86.04;101331.72;5038188;28;20659;-66
2022/01/01 00:49:06;;;;;;;12.93;10.47;;;;;;;12.51;86.08;101330.84;5027691;28;20210;-66
2022/01/01 00:51:35;;;;;;;14.47;11.77;;;;;;;12.50;86.17;101329.97;5034919;28;20687;-66
2022/01/01 00:54:02;;;;;;;14.93;10.97;;;;;;;12.49;86.10;101322.91;5029156;28;20210;-68
2022/01/01 00:56:29;;;;;;;16.10;11.37;;;;;;;12.50;85.99;101318.44;5030445;28;20317;-66
2022/01/01 00:58:55;;;;;;;19.23;12.03;;;;;;;12.50;86.11;101319.28;5034930;28;20216;-65
2022/01/01 01:01:22;;;;;;;15.60;12.23;;;;;;;12.48;85.93;101315.84;5027837;28;20222;-66
2022/01/01 01:03:48;;;;;;;17.10;12.20;;;;;;;12.50;86.19;101321.97;5026153;28;20202;-66
2022/01/01 01:06:16;;;;;;;23.97;13.17;;;;;;;12.50;85.83;101318.44;5031835;28;20914;-66
2022/01/01 01:08:42;;;;;;;13.47;12.07;;;;;;;12.50;85.88;101329.13;5041170;28;20225;-66
2022/01/01 01:11:09;;;;;;;17.40;12.50;;;;;;;12.49;86.22;101325.59;5032698;28;20241;-67
2022/01/01 01:13:38;;;;;;;15.23;12.17;;;;;;;12.50;85.89;101323.78;5027902;28;20245;-68
2022/01/01 01:16:05;;;;;;;15.10;12.57;;;;;;;12.49;85.79;101332.75;5034359;28;20259;-66
2022/01/01 01:18:32;;;;;;;19.40;12.60;;;;;;;12.49;85.86;101328.25;5030666;28;20218;-68
2022/01/01 01:20:58;;;;;;;15.53;12.67;;;;;;;12.48;85.84;101337.22;5020534;28;20219;-66
2022/01/01 01:23:26;;;;;;;18.40;11.67;;;;;;;12.51;86.07;101339.72;5031934;28;20210;-67
2022/01/01 01:25:55;;;;;;;17.67;12.30;;;;;;;12.48;86.03;101334.56;5036624;28;20208;-67
2022/01/01 01:28:21;;;;;;;16.43;13.13;;;;;;;12.49;86.12;101341.63;5035099;28;20271;-66
2022/01/01 01:30:48;;;;;;;18.17;12.47;;;;;;;12.49;86.10;101346.09;5030873;28;20236;-66
2022/01/01 01:33:14;;;;;;;18.27;12.30;;;;;;;12.48;85.95;101363.09;5030082;28;20226;-68
2022/01/01 01:35:41;;;;;;;16.50;12.63;;;;;;;12.47;85.68;101362.22;5031130;28;20292;-67
2022/01/01 01:38:07;;;;;;;19.57;12.67;;;;;;;12.46;85.94;101360.50;5031900;28;20209;-66
2022/01/01 01:40:35;;;;;;;19.23;12.97;;;;;;;12.45;85.61;101353.44;5040623;28;20229;-67
2022/01/01 01:43:08;;;;;;;17.23;13.00;;;;;;;12.43;85.88;101357.16;5029118;28;20209;-68
2022/01/01 01:45:35;;;;;;;16.70;12.90;;;;;;;12.42;85.83;101350.09;5030737;28;20273;-66
2022/01/01 01:48:02;;;;;;;17.60;12.43;;;;;;;12.41;86.08;101356.38;5024610;28;20211;-67
2022/01/01 01:50:30;;;;;;;19.87;12.77;;;;;;;12.41;86.06;101356.38;5034112;28;20253;-67
2022/01/01 01:52:58;;;;;;;19.10;12.23;;;;;;;12.39;85.75;101347.59;5031858;28;20238;-67
2022/01/01 01:55:27;;;;;;;18.33;12.43;;;;;;;12.40;85.94;101346.63;5034431;28;20237;-67
2022/01/01 01:57:55;;;;;;;16.63;12.33;;;;;;;12.39;85.81;101356.47;5028443;28;20209;-65
2022/01/01 02:00:51;;;;;;;19.30;12.60;;;;;;;12.39;85.75;101351.13;5031768;28;20226;-67
2022/01/01 02:03:17;;;;;;;18.10;13.03;;;;;;;12.38;85.78;101349.41;5033121;28;20241;-65
2022/01/01 02:05:46;;;;;;;17.20;13.77;;;;;;;12.37;85.80;101354.84;5035373;28;20701;-65
2022/01/01 02:08:14;;;;;;;20.57;13.77;;;;;;;12.34;86.20;101355.03;5037657;28;20212;-66
2022/01/01 02:10:42;;;;;;;20.97;14.43;;;;;;;12.34;86.10;101352.38;5030854;28;20241;-64
2022/01/01 02:13:16;;;;;;;19.23;15.07;;;;;;;12.35;86.33;101362.09;5027975;28;20249;-62
2022/01/01 02:15:58;;;;;;;21.73;13.97;;;;;;;12.34;86.09;101352.38;5034086;28;20211;-67
2022/01/01 02:18:24;;;;;;;18.23;13.50;;;;;;;12.34;85.97;101357.72;5030398;28;20214;-64
2022/01/01 02:20:52;;;;;;;19.87;14.50;;;;;;;12.34;85.98;101365.72;5037284;28;20226;-67
2022/01/01 02:23:21;;;;;;;20.97;13.63;;;;;;;12.31;86.31;101369.44;5035258;28;20710;-65
2022/01/01 02:25:49;;;;;;;20.80;14.73;;;;;;;12.32;86.39;101373.81;5020653;28;20205;-64
2022/01/01 02:28:17;;;;;;;23.37;13.83;;;;;;;12.31;86.68;101380.13;5037855;28;20217;-65
2022/01/01 02:30:43;;;;;;;20.57;13.93;;;;;;;12.30;86.53;101373.06;5028386;28;20222;-65
2022/01/01 02:33:10;;;;;;;21.13;15.57;;;;;;;12.32;86.43;101371.16;5029475;28;20225;-65
2022/01/01 02:35:36;;;;;;;25.97;16.50;;;;;;;12.32;86.82;101380.97;5023600;28;20873;-65
2022/01/01 02:38:04;;;;;;;23.20;16.03;;;;;;;12.33;86.76;101388.03;5040407;28;20201;-67
2022/01/01 02:40:31;;;;;;;20.83;15.17;;;;;;;12.32;86.98;101381.84;5029282;28;20244;-64
2022/01/01 02:42:57;;;;;;;19.60;14.67;;;;;;;12.33;86.56;101388.91;5036713;28;20206;-69
2022/01/01 02:45:24;;;;;;;26.40;15.17;;;;;;;12.34;87.12;101395.97;5030349;28;20206;-66
2022/01/01 02:47:50;;;;;;;25.83;14.90;;;;;;;12.32;87.26;101397.88;5028379;28;20555;-67
2022/01/01 02:50:18;;;;;;;20.60;14.73;;;;;;;12.34;87.23;101400.44;5035203;28;20925;-67
2022/01/01 02:52:47;;;;;;;19.23;15.10;;;;;;;12.33;87.02;101399.59;5031222;28;20229;-68
2022/01/01 02:55:15;;;;;;;22.50;15.03;;;;;;;12.33;86.89;101394.25;5027439;28;20280;-66
2022/01/01 02:57:41;;;;;;;21.40;14.17;;;;;;;12.34;87.06;101389.75;5024329;28;20203;-67
2022/01/01 03:00:08;;;;;;;22.77;14.77;;;;;;;12.35;86.90;101375.47;5029471;28;20721;-65
2022/01/01 03:02:35;;;;;;;19.97;14.30;;;;;;;12.34;86.83;101393.31;5038051;28;20201;-65
2022/01/01 03:05:02;;;;;;;21.50;15.27;;;;;;;12.35;87.22;101392.34;5033455;28;20605;-65
2022/01/01 03:07:28;;;;;;;20.30;14.20;;;;;;;12.38;87.18;101396.63;5038655;28;20206;-65
2022/01/01 03:09:55;;;;;;;24.23;14.73;;;;;;;12.38;87.00;101396.63;5051040;22;21627;-78
2022/01/01 03:12:23;;;;;;;23.13;15.43;;;;;;;12.38;87.25;101396.63;5051433;28;20203;-78
2022/01/01 03:14:49;;;;;;;22.57;14.37;;;;;;;12.37;86.95;101394.91;5060179;28;20695;-80
2022/01/01 03:17:16;;;;;;;21.37;14.80;;;;;;;12.39;86.80;101404.53;5034126;28;20214;-79
2022/01/01 03:19:42;;;;;;;23.40;14.03;;;;;;;12.39;87.23;101398.34;5040970;28;20205;-78
2022/01/01 03:22:09;;;;;;;19.67;15.10;;;;;;;12.39;86.75;101401.88;5051517;28;20302;-78
2022/01/01 03:24:35;;;;;;;22.50;14.87;;;;;;;12.39;87.13;101406.34;5049194;28;20217;-78
2022/01/01 03:27:03;;;;;;;22.40;13.93;;;;;;;12.39;86.84;101398.34;5050804;28;20212;-78
2022/01/01 03:29:33;;;;;;;19.97;13.30;;;;;;;12.39;87.04;101399.22;5053359;28;20206;-77
2022/01/01 03:32:00;;;;;;;20.60;13.53;;;;;;;12.37;86.87;101402.91;5052954;28;20210;-79
2022/01/01 03:34:27;;;;;;;20.53;13.73;;;;;;;12.38;86.63;101405.50;5050850;28;20236;-79
2022/01/01 03:36:53;;;;;;;18.93;13.77;;;;;;;12.38;86.65;101397.47;5058839;28;20291;-78
2022/01/01 03:39:22;;;;;;;20.67;13.40;;;;;;;12.38;87.00;101393.94;5052205;28;20320;-79
2022/01/01 03:41:48;;;;;;;22.60;14.60;;;;;;;12.36;86.69;101391.38;5045781;28;20682;-79
2022/01/01 03:44:15;;;;;;;20.23;13.50;;;;;;;12.38;86.98;101404.63;5054684;28;20257;-78
2022/01/01 03:46:43;;;;;;;24.07;14.47;;;;;;;12.36;87.01;101398.56;5052989;28;20209;-79
2022/01/01 03:49:09;;;;;;;22.00;13.73;;;;;;;12.36;86.77;101402.06;5041251;28;20214;-78
2022/01/01 03:51:36;;;;;;;22.83;14.67;;;;;;;12.36;86.91;101399.38;5054970;28;20218;-79
2022/01/01 03:54:02;;;;;;;20.23;14.93;;;;;;;12.38;87.09;101394.81;5055380;28;20234;-81
2022/01/01 03:56:29;;;;;;;24.47;14.13;;;;;;;12.38;86.69;101396.63;5046337;28;20206;-79
2022/01/01 03:58:56;;;;;;;22.47;14.20;;;;;;;12.37;86.95;101402.91;5048055;28;20579;-78
2022/01/01 04:01:22;;;;;;;22.67;14.30;;;;;;;12.36;86.81;101396.72;5063485;28;20299;-81
2022/01/01 04:03:50;;;;;;;18.80;13.67;;;;;;;12.36;86.97;101399.38;5046363;28;20327;-79
2022/01/01 04:06:17;;;;;;;23.20;13.47;;;;;;;12.36;86.85;101395.88;5048681;28;20213;-81
2022/01/01 04:08:43;;;;;;;18.80;13.07;;;;;;;12.36;86.68;101393.22;5051124;28;20527;-81
2022/01/01 04:11:10;;;;;;;16.40;11.93;;;;;;;12.35;86.81;101400.38;5046342;28;20229;-80
2022/01/01 04:13:36;;;;;;;21.00;13.27;;;;;;;12.36;86.88;101396.72;5053134;28;20224;-81
2022/01/01 04:16:03;;;;;;;19.50;12.90;;;;;;;12.36;86.85;101396.72;5049919;28;20233;-80
2022/01/01 04:18:38;;;;;;;26.07;13.50;;;;;;;12.36;86.97;101402.06;5061466;28;20274;-81
2022/01/01 04:21:07;;;;;;;19.50;13.03;;;;;;;12.35;86.76;101403.03;5038543;28;20275;-82
2022/01/01 04:23:34;;;;;;;17.97;13.43;;;;;;;12.35;86.99;101389.69;5041510;28;20206;-80
2022/01/01 04:26:01;;;;;;;22.60;13.57;;;;;;;12.35;86.69;101395.03;5055386;28;20239;-81
2022/01/01 04:28:27;;;;;;;23.37;13.87;;;;;;;12.37;86.86;101387.75;5053667;28;20263;-80
2022/01/01 04:30:54;;;;;;;21.60;12.90;;;;;;;12.36;86.97;101393.22;5051632;28;20218;-80
2022/01/01 04:33:20;;;;;;;24.47;13.80;;;;;;;12.36;86.97;101399.38;5036765;28;20236;-80
2022/01/01 04:35:47;;;;;;;19.37;13.97;;;;;;;12.37;86.61;101397.56;5050972;28;20226;-80
2022/01/01 04:38:30;;;;;;;21.83;14.30;;;;;;;12.38;86.89;101402.81;5052014;28;20206;-79
2022/01/01 04:40:57;;;;;;;20.00;14.00;;;;;;;12.35;86.51;101399.50;5049429;28;20683;-81
2022/01/01 04:43:24;;;;;;;25.33;14.20;;;;;;;12.33;86.65;101393.38;5057059;28;20217;-80
2022/01/01 04:45:50;;;;;;;23.37;13.70;;;;;;;12.31;86.65;101397.94;5045750;28;20230;-80
2022/01/01 04:48:17;;;;;;;18.90;13.10;;;;;;;12.29;86.82;101400.72;5051574;28;20244;-80
2022/01/01 04:50:43;;;;;;;27.93;14.67;;;;;;;12.28;86.88;101407.00;5049667;28;20214;-79
2022/01/01 04:53:14;;;;;;;23.13;13.77;;;;;;;12.29;86.52;101411.41;5051911;28;20764;-82
2022/01/01 04:55:42;;;;;;;19.10;12.30;;;;;;;12.29;86.61;101410.53;5055672;28;20230;-81
2022/01/01 04:58:08;;;;;;;21.37;13.10;;;;;;;12.26;86.41;101419.59;5051405;28;20217;-81
2022/01/01 05:00:35;;;;;;;20.87;13.50;;;;;;;12.25;86.66;101423.19;5055609;28;20217;-81
2022/01/01 05:03:02;;;;;;;20.23;13.03;;;;;;;12.24;86.37;101423.28;5056152;28;20213;-81
2022/01/01 05:05:28;;;;;;;24.30;12.80;;;;;;;12.23;86.55;101425.09;5051997;28;20233;-79
2022/01/01 05:07:55;;;;;;;18.37;12.37;;;;;;;12.21;86.12;101423.47;5036514;28;20221;-80
2022/01/01 05:10:24;;;;;;;18.73;12.27;;;;;;;12.21;86.56;101429.66;5053464;28;20283;-80
2022/01/01 05:12:52;;;;;;;21.10;12.43;;;;;;;12.22;86.66;101427.84;5051726;28;20210;-80
2022/01/01 05:15:18;;;;;;;23.50;13.67;;;;;;;12.20;86.59;101427.94;5063455;28;20231;-81
2022/01/01 05:17:45;;;;;;;20.83;11.73;;;;;;;12.20;86.38;101427.94;5059435;28;20296;-80
2022/01/01 05:20:14;;;;;;;24.57;12.67;;;;;;;12.20;86.41;101438.63;5057306;28;20245;-79
2022/01/01 05:22:41;;;;;;;19.10;12.73;;;;;;;12.18;86.51;101443.22;5055033;28;20267;-79
2022/01/01 05:25:08;;;;;;;22.27;12.20;;;;;;;12.18;86.42;101440.53;5057369;28;20225;-79
2022/01/01 05:27:36;;;;;;;19.60;12.50;;;;;;;12.18;86.61;101439.69;5039030;28;20217;-79
2022/01/01 05:30:06;;;;;;;22.70;11.87;;;;;;;12.17;86.32;101433.47;5049097;28;20735;-79
2022/01/01 05:32:33;;;;;;;20.60;12.90;;;;;;;12.17;86.45;101433.47;5056336;28;20208;-79
2022/01/01 05:35:00;;;;;;;21.57;13.33;;;;;;;12.14;86.55;101439.00;5057595;28;20615;-79
2022/01/01 05:37:26;;;;;;;25.17;13.17;;;;;;;12.13;86.45;101434.59;5053980;28;20212;-79
2022/01/01 05:39:53;;;;;;;22.17;12.83;;;;;;;12.12;87.05;101443.56;5039492;28;20218;-80
2022/01/01 05:42:19;;;;;;;19.97;13.43;;;;;;;12.11;86.61;101442.69;5043159;28;20217;-80
2022/01/01 05:44:46;;;;;;;25.47;13.53;;;;;;;12.11;86.84;101433.81;5035258;28;20318;-79
2022/01/01 05:47:14;;;;;;;18.00;12.83;;;;;;;12.13;87.05;101437.28;5037604;28;20218;-79
2022/01/01 05:49:40;;;;;;;19.33;13.23;;;;;;;12.12;87.01;101443.56;5050963;28;20240;-79
2022/01/01 05:52:08;;;;;;;23.07;13.23;;;;;;;12.12;86.71;101441.75;5056667;28;20209;-79
2022/01/01 05:54:35;;;;;;;24.23;13.17;;;;;;;12.13;86.84;101450.63;5049289;28;20250;-79
2022/01/01 05:57:02;;;;;;;21.83;13.90;;;;;;;12.15;86.77;101451.41;5035428;28;20206;-80
2022/01/01 05:59:28;;;;;;;24.63;14.83;;;;;;;12.14;86.90;101444.34;5049470;28;20220;-81
2022/01/01 06:01:55;;;;;;;26.10;15.50;;;;;;;12.14;86.80;101444.34;5049853;28;20705;-80
2022/01/01 06:04:23;;;;;;;28.80;16.20;;;;;;;12.14;86.91;101450.53;5042480;28;20598;-79
2022/01/01 06:06:49;;;;;;;25.47;16.80;;;;;;;12.15;86.92;101448.72;5055307;28;20222;-80
2022/01/01 06:09:16;;;;;;;31.60;18.10;;;;;;;12.12;86.84;101460.44;5055154;28;20213;-79
2022/01/01 06:11:42;;;;;;;29.37;18.47;;;;;;;12.13;86.99;101456.81;5048824;28;20216;-80
2022/01/01 06:14:09;;;;;;;30.03;19.17;;;;;;;12.12;86.85;101456.91;5047682;28;20747;-80
2022/01/01 06:16:35;;;;;;;34.00;20.23;;;;;;;12.11;86.84;101450.72;5047305;28;20212;-80
2022/01/01 06:19:02;;;;;;;31.47;19.17;;;;;;;12.11;87.16;101463.19;5042430;28;20208;-79
2022/01/01 06:21:30;;;;;;;31.60;20.20;;;;;;;12.10;87.21;101465.00;5053236;28;20215;-79
2022/01/01 06:23:56;;;;;;;34.93;21.00;;;;;;;12.08;87.04;101466.91;5050492;28;20201;-80
2022/01/01 06:26:23;;;;;;;30.47;18.53;;;;;;;12.06;87.15;101463.44;5054771;28;20661;-79
2022/01/01 06:28:49;;;;;;;32.83;19.70;;;;;;;12.05;87.57;101472.41;5053664;28;20213;-79
2022/01/01 06:31:16;;;;;;;34.27;20.30;;;;;;;12.06;87.32;101470.59;5054169;28;20210;-79
2022/01/01 06:33:43;;;;;;;34.77;20.23;;;;;;;12.06;87.32;101473.25;5054985;28;20860;-80
2022/01/01 06:36:12;;;;;;;29.77;20.10;;;;;;;12.06;87.21;101484.81;5060468;28;20576;-79
2022/01/01 06:38:40;;;;;;;32.97;18.93;;;;;;;12.05;87.55;101476.88;5042099;28;20544;-79
2022/01/01 06:41:07;;;;;;;33.20;19.17;;;;;;;12.04;87.60;101483.16;5055008;28;20214;-79
2022/01/01 06:43:33;;;;;;;29.67;18.30;;;;;;;12.02;88.01;101485.91;5053996;28;20216;-79
2022/01/01 06:46:00;;;;;;;35.30;19.73;;;;;;;12.03;87.50;101479.63;5052022;28;20228;-78
2022/01/01 06:48:26;;;;;;;32.13;19.33;;;;;;;12.02;87.57;101480.56;5038775;28;20208;-79
2022/01/01 06:50:54;;;;;;;37.37;20.13;;;;;;;12.01;87.67;101481.53;5041903;28;20216;-79
2022/01/01 06:53:20;;;;;;;30.17;20.27;;;;;;;12.00;87.68;101479.81;5052153;28;20634;-79
2022/01/01 06:55:48;;;;;;;40.87;20.73;;;;;;;12.00;87.88;101484.31;5041225;28;20230;-79
2022/01/01 06:58:15;;;;;;;37.47;21.33;;;;;;;12.00;87.88;101482.47;5035286;28;20211;-79
2022/01/01 07:00:41;;;;;;;35.90;19.70;;;;;;;12.00;87.97;101495.00;5042936;28;20557;-79
2022/01/01 07:03:08;;;;;;;38.57;20.27;;;;;;;12.00;87.80;101503.00;5045177;28;20302;-78
2022/01/01 07:05:35;;;;;;;32.63;19.90;;;;;;;12.01;87.89;101502.03;5040813;28;20229;-79
2022/01/01 07:08:01;;;;;;;36.67;19.63;;;;;;;12.00;87.86;101497.66;5038039;28;20221;-79
2022/01/01 07:10:28;;;;;;;37.00;21.10;;;;;;;12.00;88.09;101508.34;5049668;28;20216;-78
2022/01/01 07:12:56;;;;;;;39.90;21.47;;;;;;;12.02;88.13;101501.06;5053302;28;20214;-79
2022/01/01 07:15:22;;;;;;;35.97;19.87;;;;;;;12.00;88.14;101509.16;5049621;28;20247;-80
2022/01/01 07:17:49;;;;;;;31.30;19.93;;;;;;;12.02;87.89;101512.63;5047553;28;20207;-79
2022/01/01 07:20:15;;;;;;;33.63;19.27;;;;;;;12.01;87.88;101523.38;5056245;28;20239;-80
2022/01/01 07:22:44;;;;;;;32.63;19.13;;;;;;;12.03;87.94;101525.03;5056839;28;20224;-79
2022/01/01 07:25:12;;;;;;;31.93;17.97;;;;;;;12.04;87.98;101525.88;5050334;28;20229;-79
2022/01/01 07:27:39;;;;;;;35.13;19.97;;;;;;;12.04;87.79;101531.22;5059274;28;20201;-79
2022/01/01 07:30:09;;;;;;;40.17;20.70;;;;;;;12.05;87.70;101528.47;5052072;28;20210;-78
2022/01/01 07:32:40;;;;;;;33.60;19.90;;;;;;;12.06;87.87;101538.22;5061022;28;20298;-80
2022/01/01 07:35:08;;;;;;;35.20;18.97;;;;;;;12.09;87.77;101538.03;5051042;28;20231;-78
2022/01/01 07:37:36;;;;;;;35.53;23.90;;;;;;;12.07;87.49;101536.41;5058063;28;20575;-79
2022/01/01 07:40:05;;;;;;;38.17;22.23;;;;;;;12.09;87.59;101534.50;5051685;28;20223;-80
2022/01/01 07:42:31;;;;;;;46.17;23.83;;;;;;;12.10;87.38;101541.56;5055233;28;20735;-78
2022/01/01 07:44:59;;;;;;;38.70;24.20;;;;;;;12.11;87.83;101540.63;5050544;28;20228;-80
2022/01/01 07:47:27;;;;;;;39.97;23.37;;;;;;;12.14;87.41;101544.00;5039042;28;20216;-79
2022/01/01 07:49:54;;;;;;;39.53;22.17;;;;;;;12.16;87.55;101550.13;5043581;28;20217;-79
2022/01/01 07:52:20;;;;;;;38.23;22.37;;;;;;;12.17;87.37;101550.97;5052825;28;20220;-79
2022/01/01 07:54:47;;;;;;;37.20;22.53;;;;;;;12.18;87.33;101558.03;5048463;28;20236;-79
2022/01/01 07:57:14;;;;;;;34.47;22.17;;;;;;;12.18;87.25;101564.22;5042992;28;20647;-81
2022/01/01 07:59:40;;;;;;;40.53;23.20;;;;;;;12.18;87.00;101552.72;5045806;28;20596;-80
2022/01/01 08:02:07;;;;;;;42.20;22.93;;;;;;;12.18;86.99;101553.53;5036830;28;20218;-80
2022/01/01 08:04:35;;;;;;;36.87;22.17;;;;;;;12.20;86.74;101556.13;5044583;28;20232;-81
2022/01/01 08:07:02;;;;;;;37.97;23.00;;;;;;;12.21;86.99;101571.19;5042580;28;20232;-80
2022/01/01 08:09:28;;;;;;;43.77;23.80;;;;;;;12.23;86.87;101574.66;5038758;28;20297;-80
2022/01/01 08:11:55;;;;;;;38.50;22.27;;;;;;;12.24;86.83;101570.19;5048043;28;20217;-80
2022/01/01 08:14:22;;;;;;;39.80;23.57;;;;;;;12.26;86.76;101574.50;5051658;28;20694;-79
2022/01/01 08:16:55;;;;;;;34.47;20.60;;;;;;;12.26;86.47;101574.50;5043664;28;20256;-80
2022/01/01 08:19:22;;;;;;;41.10;21.67;;;;;;;12.26;86.24;101574.50;5053409;28;20206;-79
2022/01/01 08:21:50;;;;;;;32.07;21.90;;;;;;;12.28;86.21;101579.75;5047915;28;20209;-79
2022/01/01 08:24:17;;;;;;;32.00;20.67;;;;;;;12.29;86.54;101581.47;5041404;28;20917;-79
2022/01/01 08:26:43;;;;;;;34.13;20.13;;;;;;;12.29;86.29;101585.00;5057055;28;20213;-80
2022/01/01 08:29:10;;;;;;;33.63;19.83;;;;;;;12.31;86.14;101582.25;5055492;28;20205;-79
2022/01/01 08:31:36;;;;;;;31.50;19.23;;;;;;;12.32;86.21;101590.19;5041847;28;20214;-80
2022/01/01 08:34:03;;;;;;;34.00;20.00;;;;;;;12.32;85.86;101592.84;5048114;28;20210;-80
2022/01/01 08:36:30;;;;;;;29.30;19.43;;;;;;;12.34;85.83;101600.78;5055648;28;20577;-79
2022/01/01 08:38:58;;;;;;;31.97;20.53;;;;;;;12.36;85.99;101612.25;5054779;28;20212;-79
2022/01/01 08:41:26;;;;;;;38.17;20.27;;;;;;;12.38;86.00;101611.19;5051899;28;20228;-79
2022/01/01 08:43:53;;;;;;;35.60;20.40;;;;;;;12.40;85.77;101608.44;5056998;28;20206;-80
2022/01/01 08:46:20;;;;;;;31.77;20.87;;;;;;;12.39;85.80;101602.22;5046184;28;20216;-80
2022/01/01 08:48:46;;;;;;;31.17;18.47;;;;;;;12.42;85.54;101614.56;5042693;28;20213;-79
2022/01/01 08:51:14;;;;;;;32.23;19.20;;;;;;;12.43;85.49;101617.16;5045106;28;20212;-80
2022/01/01 08:53:40;;;;;;;30.87;19.67;;;;;;;12.44;85.51;101610.88;5042648;28;20209;-79
2022/01/01 08:56:09;;;;;;;28.77;18.47;;;;;;;12.46;85.28;101611.66;5051273;28;20240;-78
2022/01/01 08:58:35;;;;;;;32.37;19.90;;;;;;;12.46;85.29;101619.66;5054499;28;20205;-77
2022/01/01 09:01:02;;;;;;;33.20;18.97;;;;;;;12.46;85.31;101619.66;5053328;28;20713;-80
2022/01/01 09:03:29;;;;;;;27.53;18.67;;;;;;;12.48;85.07;101614.22;5054742;28;20220;-79
2022/01/01 09:05:55;;;;;;;31.80;18.27;;;;;;;12.48;85.05;101619.56;5051447;28;20226;-79
2022/01/01 09:08:22;;;;;;;25.60;17.73;;;;;;;12.50;84.87;101617.69;5050882;28;20596;-79
2022/01/01 09:10:49;;;;;;;35.17;18.77;;;;;;;12.52;85.09;101622.00;5046215;28;20224;-78
2022/01/01 09:13:19;;;;;;;29.87;19.53;;;;;;;12.52;84.87;101611.31;5050049;28;20204;-78
2022/01/01 09:15:45;;;;;;;33.07;18.17;;;;;;;12.53;85.10;101614.84;5054317;28;20458;-79
2022/01/01 09:18:12;;;;;;;30.27;17.03;;;;;;;12.56;84.81;101620.00;5056496;28;20676;-78
2022/01/01 09:20:38;;;;;;;29.67;17.20;;;;;;;12.57;84.76;101623.53;5049914;28;20209;-78
2022/01/01 09:23:05;;;;;;;32.20;17.97;;;;;;;12.58;85.06;101633.28;5052258;28;20212;-79
2022/01/01 09:25:31;;;;;;;29.23;17.60;;;;;;;12.60;84.77;101634.06;5068463;22;20251;-64
2022/01/01 09:27:58;;;;;;;28.80;17.57;;;;;;;12.61;84.51;101627.75;5055003;28;20296;-64
2022/01/01 09:30:26;;;;;;;28.50;18.57;;;;;;;12.62;84.67;101632.16;5047624;28;20205;-65
2022/01/01 09:32:52;;;;;;;28.97;18.43;;;;;;;12.62;84.67;101629.47;5045623;28;20525;-65
2022/01/01 09:35:19;;;;;;;32.63;20.03;;;;;;;12.64;84.78;101636.47;5048098;28;20224;-65
2022/01/01 09:37:45;;;;;;;32.63;20.37;;;;;;;12.63;84.80;101637.41;5046975;28;20225;-66
2022/01/01 09:40:13;;;;;;;27.03;18.57;;;;;;;12.65;84.96;101640.88;5047419;28;20228;-65
2022/01/01 09:42:40;;;;;;;30.77;18.37;;;;;;;12.65;84.45;101632.84;5048156;28;20210;-66
2022/01/01 09:45:09;;;;;;;28.80;18.67;;;;;;;12.67;84.65;101638.13;5046515;28;20194;-65
2022/01/01 09:47:37;;;;;;;28.60;18.20;;;;;;;12.68;84.27;101635.34;5045950;28;20224;-64
2022/01/01 09:50:05;;;;;;;30.90;20.33;;;;;;;12.71;84.11;101637.00;5045020;28;20202;-65
2022/01/01 09:52:32;;;;;;;28.03;19.27;;;;;;;12.71;84.11;101628.97;5046540;28;20209;-64
2022/01/01 09:54:59;;;;;;;31.90;18.73;;;;;;;12.73;84.08;101633.25;5045418;28;20315;-65
2022/01/01 09:57:26;;;;;;;33.57;20.00;;;;;;;12.75;84.29;101643.88;5044785;28;20287;-64
2022/01/01 09:59:52;;;;;;;25.30;15.87;;;;;;;12.76;84.00;101649.13;5047173;28;20223;-66
2022/01/01 10:02:19;;;;;;;23.90;15.53;;;;;;;12.80;84.07;101649.81;5047073;28;20209;-66
2022/01/01 10:04:50;;;;;;;24.53;15.03;;;;;;;12.80;84.25;101644.47;5047442;28;20202;-65
2022/01/01 10:07:17;;;;;;;22.70;14.47;;;;;;;12.81;83.57;101646.22;5046805;28;20619;-65
2022/01/01 10:09:44;;;;;;;24.60;14.20;;;;;;;12.85;83.67;101642.41;5046805;28;20202;-65
2022/01/01 10:12:15;;;;;;;22.87;14.07;;;;;;;12.82;83.32;101638.09;5046258;28;20202;-66
2022/01/01 10:14:44;;;;;;;24.60;14.90;;;;;;;12.84;83.71;101638.88;5049813;28;20233;-66
2022/01/01 10:17:17;;;;;;;23.87;12.93;;;;;;;12.86;83.20;101647.69;5046237;28;20211;-64
2022/01/01 10:19:45;;;;;;;20.33;12.37;;;;;;;12.86;83.16;101644.16;5047650;28;20626;-64
2022/01/01 10:22:14;;;;;;;19.20;12.70;;;;;;;12.88;83.37;101650.28;5054964;28;20694;-64
2022/01/01 10:30:18;;;;;;;20.30;14.00;;;;;;;12.90;82.92;101653.69;5036273;28;20213;-64
2022/01/01 10:33:00;;;;;;;15.33;9.93;;;;;;;12.92;82.56;101653.59;5046811;28;20207;-65
2022/01/01 10:35:26;;;;;;;21.83;11.80;;;;;;;12.92;82.32;101649.13;5039324;28;20283;-63
2022/01/01 10:37:54;;;;;;;19.67;9.67;;;;;;;12.95;82.19;101648.09;5055369;28;20247;-66
2022/01/01 10:40:26;;;;;;;16.23;10.57;;;;;;;12.95;82.12;101638.25;5048304;28;20208;-64
2022/01/01 10:42:52;;;;;;;15.90;9.97;;;;;;;12.97;82.30;101635.50;5050044;28;20205;-65
2022/01/01 10:45:29;;;;;;;17.70;8.40;;;;;;;13.00;82.15;101635.31;5045276;28;20213;-64
2022/01/01 10:48:14;;;;;;;12.57;7.70;;;;;;;13.02;82.02;101630.75;5045263;28;20233;-64
2022/01/01 10:50:43;;;;;;;17.07;7.80;;;;;;;13.06;81.27;101635.84;5047103;28;20209;-65
2022/01/01 10:53:12;;;;;;;16.27;8.30;;;;;;;13.09;81.47;101634.78;5052151;28;20206;-65
2022/01/01 10:55:46;;;;;;;16.73;7.80;;;;;;;13.12;81.35;101635.47;5045637;28;20248;-64
2022/01/01 10:58:21;;;;;;;14.30;7.50;;;;;;;13.15;80.93;101624.63;5045781;28;20232;-65
2022/01/01 11:00:49;;;;;;;12.13;6.60;;;;;;;13.17;80.98;101625.41;5045184;28;20441;-64
2022/01/01 11:03:17;;;;;;;10.77;6.87;;;;;;;13.22;80.75;101621.59;5043081;28;20194;-66
2022/01/01 11:05:45;;;;;;;9.20;6.00;;;;;;;13.24;80.51;101619.69;5048439;28;20655;-63
2022/01/01 11:08:14;;;;;;;10.73;6.00;;;;;;;13.28;79.92;101618.53;5043416;28;20715;-64
2022/01/01 11:10:42;;;;;;;13.63;5.73;;;;;;;13.30;80.30;101614.81;5049792;28;20905;-65
2022/01/01 11:13:10;;;;;;;12.30;5.77;;;;;;;13.33;79.81;101628.03;5047757;28;20211;-65
2022/01/01 11:15:36;;;;;;;10.53;5.93;;;;;;;13.34;79.59;101612.84;5050852;28;20228;-65